ADDS METAR Data INFO
IDs: Format: Raw Decoded Include TAF

Data at: 0715 UTC 19 Oct 2017

KSDL 190653Z AUTO 00000KT 10SM CLR 27/04 A2985 RMK AO2 SLP082 T02720039 403500200
KSDL 190553Z AUTO 00000KT 10SM CLR 28/05 A2987 RMK AO2 SLP088 T02780050 10339 20278 58003
KSDL 190453Z AUTO 03004KT 10SM CLR 29/03 A2988 RMK AO2 SLP091 T02940033
KSDL 190353Z AUTO 00000KT 10SM CLR 29/03 A2988 RMK AO2 SLP093 T02940033
KSDL 190253Z 00000KT 10SM CLR 31/04 A2988 RMK AO2 SLP095 T03060039 55000
KSDL 190153Z 00000KT 10SM CLR 31/03 A2987 RMK AO2 SLP093 T03110028
KSDL 190053Z 00000KT 10SM CLR 33/01 A2988 RMK AO2 SLP093 T03280011
KSDL 182353Z 25005KT 10SM CLR 34/M01 A2988 RMK AO2 SLP094 T03391006 10350 20306 56010
KSDL 182253Z 24006KT 10SM CLR 34/00 A2989 RMK AO2 SLP097 T03440000
KSDL 182153Z 25007KT 10SM CLR 34/02 A2990 RMK AO2 SLP100 T03390022
KSDL 182053Z VRB03KT 10SM CLR 34/03 A2991 RMK AO2 SLP103 T03440028 58024
KSDL 181953Z 19005KT 10SM CLR 33/04 A2994 RMK AO2 SLP114 T03330044
KSDL 181853Z 22004KT 10SM CLR 33/06 A2997 RMK AO2 SLP123 T03280061
KSDL 181753Z VRB04KT 10SM CLR 31/06 A2999 RMK AO2 SLP128 T03060061 10306 20200 50004
KSDL 181653Z 28003KT 10SM CLR 28/07 A3000 RMK AO2 SLP134 T02830072
KSDL 181553Z 00000KT 10SM CLR 26/08 A2999 RMK AO2 SLP132 T02560083
KSDL 181453Z 00000KT 10SM CLR 21/09 A2997 RMK AO2 SLP127 T02110089 53015
KSDL 181353Z 00000KT 10SM CLR 21/08 A2995 RMK AO2 SLP118 T02060083
KSDL 181253Z 00000KT 10SM CLR 21/08 A2994 RMK AO2 SLP116 T02060083
KSDL 181153Z 00000KT 10SM CLR 21/09 A2993 RMK AO2 SLP110 T02060094 10272 20200 55003
KSDL 181053Z 00000KT 10SM CLR 22/08 A2992 RMK AO2 SLP104 T02220083
KSDL 180953Z 00000KT 10SM CLR 22/09 A2993 RMK AO2 SLP110 T02220089
KSDL 180853Z 00000KT 10SM CLR 23/09 A2994 RMK AO2 SLP112 T02330094 56003
KSDL 180753Z 00000KT 10SM CLR 23/10 A2994 RMK AO2 SLP112 T02330100
KSDL 180653Z 00000KT 10SM CLR 24/09 A2994 RMK AO2 SLP113 T02440094 403610206
KSDL 180553Z 00000KT 10SM CLR 27/08 A2995 RMK AO2 SLP113 T02720078 10344 20272 50004
KSDL 180453Z 01003KT 10SM CLR 27/08 A2995 RMK AO2 SLP115 T02720083
KSDL 180353Z 00000KT 10SM CLR 29/09 A2994 RMK AO2 SLP114 T02890089
KSDL 180253Z 00000KT 10SM CLR 30/08 A2993 RMK AO2 SLP112 T03000083 53003
KSDL 180153Z 00000KT 10SM CLR 32/08 A2993 RMK AO2 SLP112 T03170078
KSDL 180053Z 22003KT 10SM CLR 33/08 A2992 RMK AO2 SLP107 T03330078
KSDL 172353Z 20005KT 10SM CLR 34/07 A2992 RMK AO2 SLP109 T03440067 10361 20322 56011
KSDL 172253Z 16005KT 10SM CLR 35/07 A2993 RMK AO2 SLP111 T03500067
KSDL 172153Z VRB03KT 10SM CLR 36/07 A2994 RMK AO2 SLP113 T03560067
KSDL 172053Z 09004KT 10SM CLR 36/07 A2996 RMK AO2 SLP118 T03560067 58031
KSDL 171953Z 15005KT 10SM CLR 36/07 A2999 RMK AO2 SLP130 T03560067